Time;durP1;ratioP1;P1;durP2;ratioP2;P2;SDS_P1;SDS_P2;PMS_P1;PMS_P2;Temp;Humidity;BMP_temperature;BMP_pressure;BME280_temperature;BME280_humidity;BME280_pressure;Samples;Min_cycle;Max_cycle;Signal;HPM_P1;HPM_P2
2021/07/02 00:01:51;;;;;;;4.83;4.20;;;11.40;99.90;;;;;;5074724;28;20194;-62
2021/07/02 00:04:16;;;;;;;9.60;5.00;;;11.30;99.90;;;;;;5074872;28;20213;-64
2021/07/02 00:06:42;;;;;;;4.73;4.33;;;11.20;99.90;;;;;;5074774;28;20277;-62
2021/07/02 00:09:07;;;;;;;5.23;4.77;;;11.20;99.90;;;;;;5074754;28;20194;-62
2021/07/02 00:11:33;;;;;;;5.13;4.63;;;11.10;99.90;;;;;;5074806;28;20265;-63
2021/07/02 00:13:59;;;;;;;5.73;5.23;;;11.00;99.90;;;;;;5074679;28;20217;-63
2021/07/02 00:16:24;;;;;;;4.90;4.50;;;10.90;99.90;;;;;;5074431;28;20171;-63
2021/07/02 00:18:50;;;;;;;4.27;3.87;;;10.90;99.90;;;;;;5074678;28;20194;-62
2021/07/02 00:21:15;;;;;;;5.23;3.93;;;10.80;99.90;;;;;;5074644;28;20167;-63
2021/07/02 00:23:41;;;;;;;5.00;4.60;;;10.70;99.90;;;;;;5074527;28;20578;-64
2021/07/02 00:26:06;;;;;;;5.13;4.73;;;10.60;99.90;;;;;;5073419;28;20203;-62
2021/07/02 00:28:32;;;;;;;4.60;4.27;;;10.50;99.90;;;;;;5074037;28;20703;-63
2021/07/02 00:30:57;;;;;;;4.90;4.50;;;10.50;99.90;;;;;;5074365;28;20220;-63
2021/07/02 00:33:23;;;;;;;4.80;3.93;;;10.40;99.90;;;;;;5074389;28;20171;-62
2021/07/02 00:35:48;;;;;;;5.00;4.60;;;10.40;99.90;;;;;;5074379;28;20242;-60
2021/07/02 00:38:14;;;;;;;4.67;4.27;;;10.30;99.90;;;;;;5074032;28;20191;-63
2021/07/02 00:40:40;;;;;;;5.37;4.67;;;10.30;99.90;;;;;;5074206;28;20167;-62
2021/07/02 00:43:06;;;;;;;4.37;4.00;;;10.30;99.90;;;;;;5074132;28;20225;-61
2021/07/02 00:45:35;;;;;;;5.17;3.97;;;10.30;99.90;;;;;;5074019;28;20171;-63
2021/07/02 00:48:01;;;;;;;5.20;4.30;;;10.20;99.90;;;;;;5072412;28;20468;-62
2021/07/02 00:50:27;;;;;;;4.70;4.30;;;10.20;99.90;;;;;;5074162;28;20484;-62
2021/07/02 00:52:53;;;;;;;5.10;4.60;;;10.10;99.90;;;;;;5073979;28;20644;-63
2021/07/02 00:55:19;;;;;;;4.97;4.57;;;10.10;99.90;;;;;;5074018;28;20182;-63
2021/07/02 00:57:45;;;;;;;3.40;3.10;;;10.00;99.90;;;;;;5073596;28;20410;-63
2021/07/02 01:00:11;;;;;;;3.77;3.57;;;9.90;99.90;;;;;;5074132;28;20167;-62
2021/07/02 01:02:38;;;;;;;3.80;3.50;;;9.80;99.90;;;;;;5073868;28;20960;-62
2021/07/02 01:05:05;;;;;;;4.83;3.43;;;9.80;99.90;;;;;;5073847;28;20905;-62
2021/07/02 01:07:31;;;;;;;3.67;3.43;;;9.70;99.90;;;;;;5073434;28;20489;-62
2021/07/02 01:09:57;;;;;;;3.53;3.23;;;9.60;99.90;;;;;;5073355;28;20475;-63
2021/07/02 01:12:22;;;;;;;3.70;3.40;;;9.60;99.90;;;;;;5073731;28;20163;-61
2021/07/02 01:14:48;;;;;;;3.87;3.47;;;9.60;99.90;;;;;;5073372;28;20168;-62
2021/07/02 01:17:14;;;;;;;2.83;2.63;;;9.60;99.90;;;;;;5073309;28;20413;-62
2021/07/02 01:19:47;;;;;;;3.93;3.47;;;9.60;99.90;;;;;;5073493;28;20631;-62
2021/07/02 01:22:20;;;;;;;4.33;3.80;;;9.50;99.90;;;;;;5073492;28;20179;-62
2021/07/02 01:24:45;;;;;;;4.40;3.53;;;9.50;99.90;;;;;;5073441;28;20485;-63
2021/07/02 01:27:12;;;;;;;4.30;3.97;;;9.40;99.90;;;;;;5072996;28;20662;-65
2021/07/02 01:29:37;;;;;;;3.80;3.33;;;9.30;99.90;;;;;;5073056;28;20187;-63
2021/07/02 01:32:03;;;;;;;7.13;3.73;;;9.30;99.90;;;;;;5073440;28;20779;-63
2021/07/02 01:34:29;;;;;;;3.93;3.53;;;9.30;99.90;;;;;;5073172;28;20667;-60
2021/07/02 01:36:55;;;;;;;3.97;3.67;;;9.20;99.90;;;;;;5072982;28;20420;-62
2021/07/02 01:49:27;;;;;;;5.10;4.70;;;9.00;99.90;;;;;;5072869;28;20425;-63
2021/07/02 01:51:52;;;;;;;5.30;4.80;;;9.00;99.90;;;;;;5072889;28;20389;-62
2021/07/02 01:54:18;;;;;;;5.47;4.97;;;9.00;99.90;;;;;;5072639;28;20402;-62
2021/07/02 01:56:48;;;;;;;4.30;3.90;;;8.90;99.90;;;;;;5072633;28;20232;-61
2021/07/02 01:59:18;;;;;;;5.30;3.67;;;8.90;99.90;;;;;;5072687;28;20195;-60
2021/07/02 02:01:46;;;;;;;7.50;5.67;;;8.80;99.90;;;;;;5072638;28;20782;-61
2021/07/02 02:04:12;;;;;;;6.87;6.27;;;8.80;99.90;;;;;;5072631;28;20409;-58
2021/07/02 02:06:37;;;;;;;6.57;4.23;;;8.80;99.90;;;;;;5072177;28;20445;-62
2021/07/02 02:09:05;;;;;;;4.10;3.70;;;8.80;99.90;;;;;;5072342;28;20414;-60
2021/07/02 02:11:31;;;;;;;4.17;3.87;;;8.70;99.90;;;;;;5072453;28;20164;-61
2021/07/02 02:13:57;;;;;;;4.47;3.90;;;8.70;99.90;;;;;;5072372;28;20445;-62
2021/07/02 02:16:23;;;;;;;5.97;5.07;;;8.70;99.90;;;;;;5072367;28;20420;-62
2021/07/02 02:18:49;;;;;;;7.10;5.07;;;8.60;99.90;;;;;;5072106;28;20917;-65
2021/07/02 02:21:14;;;;;;;6.30;5.00;;;8.60;99.90;;;;;;5071702;28;20297;-60
2021/07/02 02:23:40;;;;;;;7.70;5.57;;;8.60;99.90;;;;;;5072637;28;20179;-62
2021/07/02 02:26:05;;;;;;;7.57;6.87;;;8.70;99.90;;;;;;5072270;28;20174;-62
2021/07/02 02:28:31;;;;;;;7.87;5.90;;;8.70;99.90;;;;;;5071743;28;20199;-65
2021/07/02 02:30:57;;;;;;;6.37;5.50;;;8.60;99.90;;;;;;5072164;28;20167;-62
2021/07/02 02:33:22;;;;;;;9.30;6.93;;;8.60;99.90;;;;;;5072139;28;20170;-61
2021/07/02 02:35:48;;;;;;;6.30;5.67;;;8.70;99.90;;;;;;5072143;28;20172;-62
2021/07/02 02:38:14;;;;;;;8.70;5.90;;;8.60;99.90;;;;;;5071560;28;20187;-62
2021/07/02 02:40:39;;;;;;;7.33;6.63;;;8.60;99.90;;;;;;5072089;28;20229;-59
2021/07/02 02:43:05;;;;;;;7.43;5.20;;;8.60;99.90;;;;;;5070657;28;20167;-61
2021/07/02 02:45:30;;;;;;;7.90;4.90;;;8.50;99.90;;;;;;5072050;28;20223;-62
2021/07/02 02:47:56;;;;;;;4.70;4.30;;;8.50;99.90;;;;;;5071585;28;20294;-63
2021/07/02 02:50:22;;;;;;;5.93;5.43;;;8.50;99.90;;;;;;5071922;28;20254;-60
2021/07/02 02:52:47;;;;;;;5.97;5.37;;;8.40;99.90;;;;;;5071800;28;20217;-61
2021/07/02 02:55:13;;;;;;;9.40;5.90;;;8.40;99.90;;;;;;5071912;28;20516;-62
2021/07/02 02:57:39;;;;;;;5.00;4.60;;;8.40;99.90;;;;;;5071692;28;20194;-60
2021/07/02 03:00:10;;;;;;;5.00;4.37;;;8.40;99.90;;;;;;5071723;28;20174;-61
2021/07/02 03:02:35;;;;;;;4.77;4.33;;;8.40;99.90;;;;;;5071746;28;20174;-62
2021/07/02 03:05:01;;;;;;;5.97;5.37;;;8.50;99.90;;;;;;5071764;28;20409;-60
2021/07/02 03:07:27;;;;;;;5.40;4.90;;;8.40;99.90;;;;;;5071238;28;20199;-62
2021/07/02 03:09:52;;;;;;;7.13;5.47;;;8.40;99.90;;;;;;5071724;28;20383;-63
2021/07/02 03:12:18;;;;;;;5.20;4.70;;;8.30;99.90;;;;;;5071700;28;20255;-60
2021/07/02 03:14:43;;;;;;;7.10;4.37;;;8.30;99.90;;;;;;5071667;28;20229;-62
2021/07/02 03:17:09;;;;;;;6.13;4.93;;;8.30;99.90;;;;;;5071387;28;20198;-62
2021/07/02 03:19:35;;;;;;;9.63;6.20;;;8.30;99.90;;;;;;5071596;28;20209;-62
2021/07/02 03:22:01;;;;;;;5.30;4.80;;;8.40;99.90;;;;;;5071575;28;20504;-63
2021/07/02 03:24:27;;;;;;;5.57;4.50;;;8.40;99.90;;;;;;5071561;28;20413;-60
2021/07/02 03:26:52;;;;;;;5.27;4.73;;;8.40;99.90;;;;;;5071172;28;20381;-62
2021/07/02 03:29:18;;;;;;;5.13;4.30;;;8.40;99.90;;;;;;5071524;28;20616;-62
2021/07/02 03:31:43;;;;;;;7.73;5.83;;;8.40;99.90;;;;;;5072047;28;20172;-60
2021/07/02 03:34:09;;;;;;;7.70;5.47;;;8.40;99.90;;;;;;5075514;28;20213;-64
2021/07/02 03:36:35;;;;;;;6.33;4.80;;;8.40;99.90;;;;;;5075088;28;20179;-62
2021/07/02 03:39:01;;;;;;;8.00;5.07;;;8.40;99.90;;;;;;5075477;28;20716;-60
2021/07/02 03:41:26;;;;;;;5.27;4.80;;;8.40;99.90;;;;;;5075420;28;20715;-62
2021/07/02 03:43:52;;;;;;;6.33;4.33;;;8.40;99.90;;;;;;5075254;28;20437;-62
2021/07/02 03:46:17;;;;;;;4.27;3.87;;;8.40;99.90;;;;;;5075165;28;20197;-64
2021/07/02 03:48:43;;;;;;;6.20;4.80;;;8.50;99.90;;;;;;5074938;28;20191;-60
2021/07/02 03:51:09;;;;;;;4.40;4.00;;;8.50;99.90;;;;;;5075121;28;20246;-62
2021/07/02 03:53:34;;;;;;;4.20;3.80;;;8.50;99.90;;;;;;5075101;28;20170;-62
2021/07/02 03:56:01;;;;;;;5.03;4.00;;;8.50;99.90;;;;;;5075150;28;20167;-65
2021/07/02 03:58:27;;;;;;;5.07;4.30;;;8.60;99.90;;;;;;5074691;28;20240;-60
2021/07/02 04:00:52;;;;;;;5.47;4.10;;;8.70;99.90;;;;;;5075514;28;20840;-63
2021/07/02 04:03:18;;;;;;;4.63;4.17;;;8.70;99.90;;;;;;5074856;28;20574;-64
2021/07/02 04:05:44;;;;;;;5.13;4.27;;;8.80;99.90;;;;;;5074814;28;20540;-60
2021/07/02 04:08:11;;;;;;;5.20;4.70;;;8.80;99.90;;;;;;5074479;28;20210;-60
2021/07/02 04:10:38;;;;;;;7.10;6.33;;;8.80;99.90;;;;;;5074919;28;20465;-62
2021/07/02 04:13:04;;;;;;;6.27;5.67;;;8.80;99.90;;;;;;5074770;28;20444;-63
2021/07/02 04:15:29;;;;;;;13.10;6.30;;;8.70;99.90;;;;;;5074782;28;20406;-62
2021/07/02 04:17:55;;;;;;;7.00;5.30;;;8.60;99.90;;;;;;5074375;28;20470;-62
2021/07/02 04:20:21;;;;;;;6.77;5.40;;;8.60;99.90;;;;;;5074615;28;20175;-64
2021/07/02 04:22:46;;;;;;;6.90;6.00;;;8.70;99.90;;;;;;5074548;28;20258;-63
2021/07/02 04:25:13;;;;;;;7.03;6.33;;;8.80;99.90;;;;;;5074619;28;20631;-62
2021/07/02 04:27:40;;;;;;;7.60;6.33;;;8.80;99.90;;;;;;5074151;28;20213;-62
2021/07/02 04:30:07;;;;;;;6.50;5.90;;;8.90;99.90;;;;;;5074506;28;20405;-61
2021/07/02 04:32:33;;;;;;;5.90;5.40;;;9.00;99.90;;;;;;5074404;28;20733;-62
2021/07/02 04:34:59;;;;;;;5.60;4.90;;;9.00;99.90;;;;;;5074382;28;20522;-62
2021/07/02 04:37:24;;;;;;;9.13;6.53;;;9.20;99.90;;;;;;5074104;28;20179;-62
2021/07/02 04:39:50;;;;;;;5.33;4.83;;;9.30;99.90;;;;;;5074242;28;20191;-63
2021/07/02 04:42:15;;;;;;;7.57;5.70;;;9.50;99.90;;;;;;5074350;28;20174;-63
2021/07/02 04:44:41;;;;;;;9.20;6.80;;;9.60;99.90;;;;;;5073451;28;20206;-63
2021/07/02 04:47:07;;;;;;;8.40;6.97;;;9.60;99.90;;;;;;5073824;28;20196;-62
2021/07/02 04:49:33;;;;;;;7.27;6.57;;;9.60;99.90;;;;;;5074094;28;20216;-63
2021/07/02 04:51:59;;;;;;;7.80;6.13;;;9.60;99.90;;;;;;5074124;28;20406;-63
2021/07/02 04:54:25;;;;;;;6.87;6.07;;;9.50;99.90;;;;;;5074049;28;20893;-63
2021/07/02 04:56:51;;;;;;;7.33;5.80;;;9.50;99.90;;;;;;5073786;28;20221;-63
2021/07/02 04:59:19;;;;;;;8.07;6.40;;;9.50;99.90;;;;;;5073940;28;20229;-63
2021/07/02 05:01:44;;;;;;;7.10;6.10;;;9.50;99.90;;;;;;5073677;28;20440;-63
2021/07/02 05:04:10;;;;;;;7.80;6.90;;;9.50;99.90;;;;;;5073751;28;20401;-64
2021/07/02 05:06:40;;;;;;;6.33;5.27;;;9.50;99.90;;;;;;5073502;28;20171;-62
2021/07/02 05:09:06;;;;;;;8.47;7.60;;;9.40;99.90;;;;;;5073730;28;20249;-63
2021/07/02 05:11:34;;;;;;;6.90;5.70;;;9.40;99.90;;;;;;5073735;28;20413;-63
2021/07/02 05:14:01;;;;;;;7.43;6.63;;;9.30;99.90;;;;;;5073689;28;20404;-63
2021/07/02 05:16:27;;;;;;;6.37;5.60;;;9.30;99.90;;;;;;5073368;28;20437;-63
2021/07/02 05:18:52;;;;;;;9.77;7.10;;;9.30;99.90;;;;;;5073405;28;20422;-64
2021/07/02 05:21:18;;;;;;;6.53;5.90;;;9.40;99.90;;;;;;5073627;28;20163;-63
2021/07/02 05:23:44;;;;;;;8.00;6.57;;;9.40;99.90;;;;;;5073503;28;20175;-63
2021/07/02 05:26:11;;;;;;;6.83;6.13;;;9.40;99.90;;;;;;5073724;28;20167;-63
2021/07/02 05:28:37;;;;;;;6.83;6.13;;;9.50;99.90;;;;;;5072973;28;20248;-63
2021/07/02 05:31:02;;;;;;;6.60;5.43;;;9.70;99.90;;;;;;5073254;28;20402;-63
2021/07/02 05:33:28;;;;;;;7.27;5.93;;;9.80;99.90;;;;;;5073251;28;20170;-63
2021/07/02 05:35:53;;;;;;;7.03;6.20;;;9.90;99.90;;;;;;5073272;28;20246;-63
2021/07/02 05:38:19;;;;;;;7.23;6.50;;;10.00;99.90;;;;;;5072894;28;20588;-64
2021/07/02 05:40:45;;;;;;;5.70;4.47;;;10.10;99.90;;;;;;5073171;28;20177;-62
2021/07/02 05:43:11;;;;;;;5.33;4.90;;;10.30;99.90;;;;;;5073097;28;20174;-61
2021/07/02 05:45:36;;;;;;;4.57;4.17;;;10.50;99.90;;;;;;5072954;28;20818;-62
2021/07/02 05:48:02;;;;;;;4.03;3.73;;;10.70;99.90;;;;;;5072594;28;20276;-62
2021/07/02 05:50:29;;;;;;;4.47;4.07;;;11.00;99.90;;;;;;5072994;28;20170;-63
2021/07/02 05:52:55;;;;;;;6.77;6.17;;;11.30;99.90;;;;;;5072852;28;20411;-62
2021/07/02 05:55:25;;;;;;;5.80;5.30;;;11.50;99.90;;;;;;5072312;28;20401;-60
2021/07/02 05:57:51;;;;;;;3.77;3.47;;;11.70;99.90;;;;;;5072186;28;20424;-62
2021/07/02 06:00:18;;;;;;;6.00;3.50;;;11.90;99.90;;;;;;5072558;28;20833;-62
2021/07/02 06:02:44;;;;;;;4.17;3.80;;;12.00;99.90;;;;;;5072661;28;20417;-62
2021/07/02 06:05:10;;;;;;;4.60;4.00;;;12.20;99.90;;;;;;5072701;28;20401;-60
2021/07/02 06:07:47;;;;;;;4.90;4.40;;;12.30;99.90;;;;;;5072214;28;20721;-62
2021/07/02 06:10:14;;;;;;;6.80;5.67;;;12.40;99.90;;;;;;5072683;28;20395;-64
2021/07/02 06:12:40;;;;;;;6.53;4.93;;;12.40;99.90;;;;;;5072341;28;20488;-62
2021/07/02 06:15:06;;;;;;;8.70;6.23;;;12.50;99.90;;;;;;5072730;28;20555;-62
2021/07/02 06:17:32;;;;;;;6.23;5.63;;;12.60;99.90;;;;;;5072178;28;20168;-63
2021/07/02 06:19:57;;;;;;;5.50;4.50;;;12.60;99.90;;;;;;5072299;28;20564;-63
2021/07/02 06:22:23;;;;;;;9.47;7.20;;;12.80;99.90;;;;;;5072613;28;20199;-63
2021/07/02 06:24:48;;;;;;;10.40;6.03;;;13.00;99.90;;;;;;5072244;28;20182;-62
2021/07/02 06:27:14;;;;;;;6.20;5.60;;;13.10;99.90;;;;;;5071872;28;20481;-63
2021/07/02 06:29:39;;;;;;;13.87;8.60;;;13.30;99.90;;;;;;5072399;28;20206;-63
2021/07/02 06:32:05;;;;;;;8.20;6.43;;;13.30;99.90;;;;;;5072198;28;20746;-63
2021/07/02 06:34:31;;;;;;;10.87;7.50;;;13.40;99.90;;;;;;5072083;28;20537;-64
2021/07/02 06:36:56;;;;;;;9.30;7.90;;;13.50;99.90;;;;;;5071789;28;20171;-62
2021/07/02 06:39:22;;;;;;;6.87;5.70;;;13.50;99.90;;;;;;5072065;28;20199;-63
2021/07/02 06:41:48;;;;;;;8.37;7.57;;;13.60;99.90;;;;;;5072037;28;20167;-63
2021/07/02 06:44:13;;;;;;;10.90;8.50;;;13.70;99.90;;;;;;5072226;28;20225;-64
2021/07/02 06:46:39;;;;;;;10.10;6.77;;;13.80;99.90;;;;;;5071662;28;20176;-62
2021/07/02 06:49:05;;;;;;;9.30;8.03;;;13.90;99.90;;;;;;5072100;28;20191;-63
2021/07/02 06:51:35;;;;;;;11.00;7.27;;;14.00;99.90;;;;;;5071970;28;20159;-63
2021/07/02 06:54:01;;;;;;;13.77;8.50;;;14.10;99.90;;;;;;5071885;28;20398;-63
2021/07/02 06:56:31;;;;;;;8.90;7.53;;;14.10;99.90;;;;;;5071582;28;20784;-63
2021/07/02 06:58:57;;;;;;;12.73;6.43;;;14.10;99.90;;;;;;5071784;28;20421;-63
2021/07/02 07:01:24;;;;;;;17.53;8.70;;;14.30;99.90;;;;;;5071761;28;20436;-63
2021/07/02 07:03:50;;;;;;;10.23;8.47;;;14.40;99.90;;;;;;5071794;28;20168;-63
2021/07/02 07:06:16;;;;;;;14.37;10.07;;;14.40;99.90;;;;;;5071729;28;20413;-63
2021/07/02 07:08:41;;;;;;;11.40;10.20;;;14.50;99.90;;;;;;5071527;28;20456;-62
2021/07/02 07:11:07;;;;;;;10.80;9.03;;;14.60;99.90;;;;;;5071563;28;20397;-63
2021/07/02 07:13:32;;;;;;;11.10;8.93;;;14.70;99.90;;;;;;5071669;28;20177;-63
2021/07/02 07:15:58;;;;;;;10.73;8.60;;;14.80;99.90;;;;;;5071787;28;20541;-63
2021/07/02 07:18:24;;;;;;;11.70;8.33;;;15.00;99.90;;;;;;5071364;28;20261;-62
2021/07/02 07:20:49;;;;;;;9.40;8.40;;;15.10;99.90;;;;;;5071672;28;20727;-63
2021/07/02 07:23:15;;;;;;;14.93;10.50;;;15.20;99.90;;;;;;5071588;28;20213;-63
2021/07/02 07:25:41;;;;;;;11.83;8.10;;;15.20;99.90;;;;;;5071546;28;20163;-63
2021/07/02 07:28:06;;;;;;;10.90;9.13;;;15.20;99.90;;;;;;5071189;28;20203;-63
2021/07/02 07:30:32;;;;;;;11.83;8.20;;;15.20;99.90;;;;;;5071525;28;20167;-63
2021/07/02 07:32:57;;;;;;;11.30;9.47;;;15.20;99.90;;;;;;5071482;28;20216;-64
2021/07/02 07:35:26;;;;;;;10.37;7.40;;;15.40;99.90;;;;;;5071488;28;20254;-64
2021/07/02 07:37:56;;;;;;;9.57;7.30;;;15.50;99.90;;;;;;5071120;28;20171;-63
2021/07/02 07:40:24;;;;;;;10.87;6.57;;;15.50;99.90;;;;;;5071392;28;20459;-64
2021/07/02 07:42:50;;;;;;;8.90;6.40;;;15.30;99.90;;;;;;5070103;28;20466;-64
2021/07/02 07:45:16;;;;;;;10.47;7.90;;;15.20;99.90;;;;;;5073125;28;20402;-63
2021/07/02 07:47:42;;;;;;;10.73;8.03;;;15.30;99.90;;;;;;5091080;28;20244;-63
2021/07/02 07:50:09;;;;;;;10.50;6.77;;;15.30;99.90;;;;;;5091421;28;20892;-63
2021/07/02 07:55:10;;;;;;;7.43;6.73;;;15.40;99.90;;;;;;5089764;28;20411;-63
2021/07/02 07:57:36;;;;;;;8.97;6.43;;;15.60;99.90;;;;;;5070984;28;20773;-65
2021/07/02 08:00:03;;;;;;;11.83;6.67;;;15.70;99.90;;;;;;5071421;28;20425;-63
2021/07/02 08:02:29;;;;;;;9.83;7.00;;;15.90;99.90;;;;;;5071307;28;20175;-64
2021/07/02 08:04:54;;;;;;;12.53;6.40;;;16.00;99.90;;;;;;5084907;28;20784;-64
2021/07/02 08:07:20;;;;;;;9.67;7.10;;;16.10;99.90;;;;;;5088235;28;20670;-65
2021/07/02 08:09:46;;;;;;;8.90;7.27;;;16.30;99.90;;;;;;5071047;28;20704;-63
2021/07/02 08:12:11;;;;;;;8.27;7.30;;;16.30;99.90;;;;;;5071172;28;20267;-64
2021/07/02 08:14:38;;;;;;;8.33;7.23;;;16.40;99.90;;;;;;5071303;28;20160;-64
2021/07/02 08:17:04;;;;;;;10.17;7.90;;;16.60;99.90;;;;;;5070825;28;20163;-63
2021/07/02 08:19:29;;;;;;;11.10;6.60;;;16.80;99.90;;;;;;5072265;28;20466;-63
2021/07/02 08:21:55;;;;;;;12.03;7.47;;;16.90;99.90;;;;;;5074580;28;20174;-64
2021/07/02 08:24:21;;;;;;;7.70;6.33;;;16.80;99.90;;;;;;5074564;28;20225;-65
2021/07/02 08:26:49;;;;;;;9.13;8.20;;;17.00;99.90;;;;;;5074176;28;20552;-63
2021/07/02 08:29:25;;;;;;;7.20;6.57;;;17.10;99.90;;;;;;5074500;28;20539;-64
2021/07/02 08:31:51;;;;;;;9.37;7.33;;;17.10;99.90;;;;;;5074549;28;20409;-65
2021/07/02 08:34:17;;;;;;;9.93;7.77;;;17.40;99.90;;;;;;5074314;28;20505;-64
2021/07/02 08:36:43;;;;;;;7.80;6.67;;;17.60;99.90;;;;;;5074300;28;20489;-63
2021/07/02 08:39:10;;;;;;;8.73;6.70;;;17.70;99.90;;;;;;5074382;28;20277;-64
2021/07/02 08:41:37;;;;;;;11.47;7.13;;;17.80;99.90;;;;;;5074405;28;20596;-64
2021/07/02 08:44:03;;;;;;;9.80;8.80;;;18.00;99.90;;;;;;5074271;28;20458;-65
2021/07/02 08:46:29;;;;;;;11.33;8.03;;;18.10;99.90;;;;;;5073890;28;20413;-63
2021/07/02 08:48:55;;;;;;;10.67;8.00;;;18.20;99.30;;;;;;5073933;28;20211;-63
2021/07/02 08:51:23;;;;;;;10.60;8.40;;;18.40;99.70;;;;;;5074206;28;20646;-64
2021/07/02 08:53:49;;;;;;;9.30;7.80;;;18.50;99.80;;;;;;5073999;28;20406;-64
2021/07/02 08:56:19;;;;;;;11.90;9.80;;;18.50;98.50;;;;;;5073986;28;20906;-65
2021/07/02 08:58:44;;;;;;;10.07;8.30;;;18.60;98.50;;;;;;5073653;28;20199;-64
2021/07/02 09:01:38;;;;;;;12.47;8.80;;;18.50;98.50;;;;;;5073896;28;20425;-65
2021/07/02 09:04:13;;;;;;;13.37;9.43;;;18.60;99.30;;;;;;5073829;28;20237;-64
2021/07/02 09:06:41;;;;;;;9.50;8.60;;;18.70;98.30;;;;;;5073536;28;20405;-64
2021/07/02 09:09:09;;;;;;;15.80;9.70;;;19.00;99.20;;;;;;5073753;28;20428;-64
2021/07/02 09:11:36;;;;;;;7.70;6.90;;;19.20;99.00;;;;;;5073817;28;20414;-65
2021/07/02 09:14:04;;;;;;;9.17;8.20;;;19.60;98.20;;;;;;5073519;28;20410;-64
2021/07/02 09:16:38;;;;;;;10.47;8.50;;;19.50;97.60;;;;;;5073502;28;20447;-64
2021/07/02 09:19:24;;;;;;;8.20;7.40;;;19.60;98.40;;;;;;5073568;28;20425;-64
2021/07/02 09:21:51;;;;;;;8.13;7.43;;;20.00;98.20;;;;;;5073625;28;20397;-64
2021/07/02 09:24:43;;;;;;;8.23;7.53;;;20.10;96.50;;;;;;5073312;28;20436;-65
2021/07/02 09:27:23;;;;;;;7.73;7.03;;;20.40;95.90;;;;;;5073189;28;20441;-64
2021/07/02 09:30:09;;;;;;;7.70;5.10;;;20.30;94.30;;;;;;5073165;28;20457;-64
2021/07/02 09:32:43;;;;;;;6.03;5.40;;;20.20;94.50;;;;;;5073225;28;20408;-65
2021/07/02 09:35:10;;;;;;;6.73;6.10;;;20.20;96.00;;;;;;5073397;28;20398;-65
2021/07/02 09:37:41;;;;;;;7.13;6.43;;;20.40;95.40;;;;;;5072971;28;20398;-62
2021/07/02 09:40:12;;;;;;;5.40;4.90;;;20.20;94.60;;;;;;5073530;28;20398;-62
2021/07/02 09:42:38;;;;;;;6.87;6.30;;;20.30;95.60;;;;;;5073023;28;20430;-62
2021/07/02 09:45:08;;;;;;;6.50;5.47;;;20.30;95.00;;;;;;5073057;28;20921;-62
2021/07/02 09:47:34;;;;;;;6.50;5.47;;;20.20;95.30;;;;;;5072574;28;20203;-63
2021/07/02 09:50:18;;;;;;;5.93;5.20;;;19.90;93.90;;;;;;5072913;28;20499;-62
2021/07/02 09:53:10;;;;;;;6.17;5.57;;;20.30;95.40;;;;;;5072839;28;20401;-63
2021/07/02 09:55:47;;;;;;;8.50;6.33;;;20.60;93.70;;;;;;5063904;28;20832;-62
2021/07/02 09:58:15;;;;;;;6.20;5.60;;;21.00;95.20;;;;;;5072491;28;20421;-62
2021/07/02 10:00:41;;;;;;;6.00;5.20;;;20.70;92.90;;;;;;5073235;28;20425;-61
2021/07/02 10:03:07;;;;;;;6.63;5.90;;;20.30;93.30;;;;;;5072650;28;20402;-62
2021/07/02 10:05:45;;;;;;;4.43;4.13;;;20.40;93.50;;;;;;5072756;28;20536;-62
2021/07/02 10:08:11;;;;;;;5.37;4.87;;;20.70;92.20;;;;;;5072618;28;20459;-63
2021/07/02 10:10:37;;;;;;;4.70;4.30;;;21.10;92.80;;;;;;5072859;28;20401;-62
2021/07/02 10:13:04;;;;;;;5.17;4.70;;;21.30;91.90;;;;;;5072439;28;20402;-63
2021/07/02 10:15:29;;;;;;;5.07;4.67;;;21.50;92.20;;;;;;5072541;28;20171;-62
2021/07/02 10:18:00;;;;;;;6.10;5.10;;;21.90;92.10;;;;;;5072132;28;20404;-62
2021/07/02 10:20:30;;;;;;;5.03;4.63;;;22.10;91.30;;;;;;5072389;28;20656;-62
2021/07/02 10:22:59;;;;;;;6.03;4.97;;;22.30;91.30;;;;;;5072636;28;20414;-62
2021/07/02 10:25:27;;;;;;;4.40;4.00;;;22.50;91.80;;;;;;5072336;28;20971;-62
2021/07/02 10:27:53;;;;;;;5.67;5.23;;;22.80;92.10;;;;;;5071840;28;20797;-62
2021/07/02 10:30:19;;;;;;;5.50;5.00;;;22.40;91.20;;;;;;5072327;28;20401;-62
2021/07/02 10:32:47;;;;;;;7.03;6.00;;;22.80;92.10;;;;;;5072157;28;20948;-62
2021/07/02 10:35:14;;;;;;;5.80;5.30;;;22.70;90.80;;;;;;5072135;28;20394;-62
2021/07/02 10:37:43;;;;;;;6.93;6.33;;;22.80;92.10;;;;;;5071967;28;20410;-62
2021/07/02 10:40:21;;;;;;;6.87;6.13;;;22.50;91.60;;;;;;5072158;28;20409;-62
2021/07/02 10:43:07;;;;;;;5.63;5.10;;;22.30;91.00;;;;;;5071478;28;20928;-61
2021/07/02 10:45:32;;;;;;;5.70;5.23;;;22.00;92.30;;;;;;5071990;28;20458;-62
2021/07/02 10:47:58;;;;;;;6.67;6.07;;;22.10;92.90;;;;;;5071478;28;20457;-63
2021/07/02 10:50:53;;;;;;;6.40;5.50;;;21.90;91.80;;;;;;5072051;28;20242;-62
2021/07/02 10:53:36;;;;;;;7.70;5.70;;;21.70;93.10;;;;;;5054601;28;20604;-62
2021/07/02 10:56:26;;;;;;;7.20;6.50;;;21.60;93.00;;;;;;5071822;28;20459;-62
2021/07/02 10:58:52;;;;;;;6.03;5.50;;;21.60;91.80;;;;;;5071868;28;20425;-62
2021/07/02 11:01:18;;;;;;;6.87;6.27;;;21.70;93.60;;;;;;5071741;28;20789;-63
2021/07/02 11:03:44;;;;;;;6.93;5.90;;;22.00;94.30;;;;;;5071821;28;20421;-61
2021/07/02 11:06:36;;;;;;;7.13;6.10;;;22.30;93.80;;;;;;5071813;28;20183;-61
2021/07/02 11:09:02;;;;;;;6.87;6.17;;;22.80;93.50;;;;;;5071692;28;20685;-62
2021/07/02 11:12:08;;;;;;;9.00;6.60;;;22.90;93.60;;;;;;5071764;28;20480;-62
2021/07/02 11:14:54;;;;;;;8.13;7.00;;;23.00;94.30;;;;;;5068763;28;20228;-62
2021/07/02 11:17:24;;;;;;;7.50;6.80;;;22.90;93.00;;;;;;5071310;28;20412;-62
2021/07/02 11:20:08;;;;;;;8.50;7.50;;;23.10;94.60;;;;;;5071873;28;20500;-62
2021/07/02 11:23:00;;;;;;;7.33;6.63;;;23.10;91.50;;;;;;5071674;28;20394;-62
2021/07/02 11:25:32;;;;;;;11.47;6.90;;;23.10;92.50;;;;;;5071626;28;20398;-62
2021/07/02 11:28:02;;;;;;;8.00;7.30;;;22.90;91.90;;;;;;5071237;28;20455;-62
2021/07/02 11:30:36;;;;;;;7.03;6.33;;;22.50;92.90;;;;;;5071544;28;20425;-62
2021/07/02 11:33:08;;;;;;;7.83;7.17;;;22.20;93.20;;;;;;5071595;28;20749;-62
2021/07/02 11:35:38;;;;;;;7.50;6.80;;;22.50;93.10;;;;;;5071377;28;20398;-63
2021/07/02 11:38:13;;;;;;;8.07;7.23;;;22.80;93.70;;;;;;5071258;28;20428;-62
2021/07/02 11:40:56;;;;;;;8.33;7.63;;;22.70;92.40;;;;;;5071508;28;20400;-62
2021/07/02 11:43:36;;;;;;;10.50;6.97;;;23.50;95.80;;;;;;5071455;28;21004;-62
2021/07/02 11:46:05;;;;;;;10.80;8.43;;;24.20;94.30;;;;;;5071262;28;20407;-65
2021/07/02 11:48:33;;;;;;;7.90;7.10;;;24.30;93.50;;;;;;5071115;28;20476;-62
2021/07/02 11:51:02;;;;;;;12.10;7.70;;;24.60;92.00;;;;;;5071611;28;20413;-62
2021/07/02 11:53:36;;;;;;;9.43;7.63;;;24.80;91.70;;;;;;5072904;28;20398;-62
2021/07/02 11:56:19;;;;;;;8.63;7.93;;;24.60;90.50;;;;;;5075287;28;20398;-62
2021/07/02 11:58:50;;;;;;;7.47;6.20;;;24.40;90.80;;;;;;5074827;28;20425;-62
2021/07/02 12:01:17;;;;;;;6.37;5.77;;;24.30;91.60;;;;;;5074972;28;20428;-65
2021/07/02 12:04:00;;;;;;;6.10;5.60;;;24.00;91.00;;;;;;5074995;28;20405;-63
2021/07/02 12:06:28;;;;;;;6.67;5.80;;;23.70;91.80;;;;;;5074805;28;20458;-67
2021/07/02 12:09:18;;;;;;;5.90;5.27;;;23.50;91.90;;;;;;5074641;28;20498;-62
2021/07/02 12:11:52;;;;;;;7.50;6.80;;;23.40;92.60;;;;;;5063906;28;20509;-62
2021/07/02 12:14:27;;;;;;;6.90;6.40;;;23.40;90.50;;;;;;5074830;28;20397;-62
2021/07/02 12:16:55;;;;;;;6.60;5.97;;;23.40;91.20;;;;;;5074545;28;20905;-62
2021/07/02 12:19:23;;;;;;;8.20;7.43;;;23.20;91.00;;;;;;5074522;28;20793;-63
2021/07/02 12:22:05;;;;;;;7.57;6.87;;;23.10;91.90;;;;;;5074742;28;20506;-62
2021/07/02 12:24:38;;;;;;;8.80;8.10;;;23.10;93.60;;;;;;5074690;28;20546;-63
2021/07/02 12:27:09;;;;;;;7.10;6.43;;;23.10;92.20;;;;;;5074292;28;20468;-62
2021/07/02 12:29:34;;;;;;;11.00;7.50;;;23.40;93.30;;;;;;5074488;28;20503;-62
2021/07/02 12:32:04;;;;;;;8.20;6.50;;;24.00;93.10;;;;;;5074461;28;21219;-62
2021/07/02 12:34:43;;;;;;;5.77;5.37;;;23.90;90.60;;;;;;5074435;28;20186;-63
2021/07/02 12:37:17;;;;;;;8.03;7.20;;;23.90;91.60;;;;;;5074225;28;20393;-62
2021/07/02 12:39:48;;;;;;;6.43;5.83;;;23.60;91.70;;;;;;5088135;28;20431;-62
2021/07/02 12:42:16;;;;;;;8.17;7.47;;;23.30;92.30;;;;;;5094441;28;20408;-63
2021/07/02 12:44:51;;;;;;;6.93;6.27;;;23.10;91.20;;;;;;5094457;28;20404;-62
2021/07/02 12:47:18;;;;;;;7.70;6.30;;;22.90;91.70;;;;;;5094353;28;20448;-62
2021/07/02 12:49:53;;;;;;;10.80;7.57;;;23.30;96.30;;;;;;5094613;28;20482;-62
2021/07/02 12:55:05;;;;;;;7.20;6.50;;;24.10;92.10;;;;;;5094259;28;20439;-62
2021/07/02 12:57:40;;;;;;;6.60;6.00;;;24.00;91.90;;;;;;5094026;28;20392;-62
2021/07/02 13:00:10;;;;;;;8.37;7.57;;;24.30;92.10;;;;;;5093613;28;20410;-63
2021/07/02 13:02:46;;;;;;;7.43;6.60;;;24.20;91.90;;;;;;5093779;28;20411;-63
2021/07/02 13:05:18;;;;;;;7.47;6.77;;;24.80;93.50;;;;;;5093459;28;20768;-65
2021/07/02 13:08:04;;;;;;;8.20;6.53;;;25.20;91.90;;;;;;5093573;28;20444;-62
2021/07/02 13:10:45;;;;;;;7.13;6.43;;;24.80;90.20;;;;;;5093652;28;20500;-62